createdAt,value
2023-03-06T00:00:45.357Z,99349.51
2023-03-06T00:03:13.622Z,99347.84
2023-03-06T00:05:43.248Z,99348.05
2023-03-06T00:08:11.860Z,99349.98
2023-03-06T00:10:49.759Z,99354.63
2023-03-06T00:13:26.926Z,99349.54
2023-03-06T00:15:57.759Z,99349.91
2023-03-06T00:18:28.257Z,99350.48
2023-03-06T00:21:02.390Z,99348.29
2023-03-06T00:23:33.111Z,99346.77
2023-03-06T00:26:02.168Z,99346.40
2023-03-06T00:28:31.679Z,99343.52
2023-03-06T00:31:02.720Z,99336.25
2023-03-06T00:33:38.082Z,99337.15
2023-03-06T00:36:06.720Z,99340.56
2023-03-06T00:38:35.824Z,99342.95
2023-03-06T00:41:08.831Z,99343.44
2023-03-06T00:43:37.343Z,99344.27
2023-03-06T00:46:06.595Z,99341.48
2023-03-06T00:48:35.649Z,99341.41
2023-03-06T00:51:13.464Z,99339.30
2023-03-06T00:53:42.100Z,99337.55
2023-03-06T00:56:10.643Z,99339.24
2023-03-06T00:58:40.505Z,99339.89
2023-03-06T01:01:08.934Z,99337.52
2023-03-06T01:03:37.904Z,99340.96
2023-03-06T01:06:08.089Z,99336.94
2023-03-06T01:08:37.678Z,99341.20
2023-03-06T01:11:06.912Z,99341.14
2023-03-06T01:13:35.278Z,99341.75
2023-03-06T01:16:10.632Z,99341.84
2023-03-06T01:18:39.806Z,99342.14
2023-03-06T01:21:08.052Z,99341.04
2023-03-06T01:23:38.998Z,99341.13
2023-03-06T01:26:07.362Z,99342.60
2023-03-06T01:28:37.627Z,99347.83
2023-03-06T01:31:06.008Z,99353.09
2023-03-06T01:33:35.569Z,99353.63
2023-03-06T01:36:07.179Z,99353.45
2023-03-06T01:38:35.750Z,99353.13
2023-03-06T01:41:04.040Z,99350.45
2023-03-06T01:43:35.911Z,99348.75
2023-03-06T01:46:24.625Z,99352.45
2023-03-06T01:48:54.405Z,99354.58
2023-03-06T01:51:23.332Z,99353.11
2023-03-06T01:53:51.502Z,99348.52
2023-03-06T01:56:19.986Z,99348.90
2023-03-06T01:58:49.896Z,99349.73
2023-03-06T02:01:18.230Z,99347.05
2023-03-06T02:03:47.589Z,99341.20
2023-03-06T02:06:21.979Z,99342.36
2023-03-06T02:08:50.317Z,99344.12
2023-03-06T02:11:22.006Z,99343.27
2023-03-06T02:13:51.497Z,99346.01
2023-03-06T02:16:20.710Z,99343.77
2023-03-06T02:18:52.100Z,99338.66
2023-03-06T02:21:26.390Z,99342.56
2023-03-06T02:23:58.327Z,99340.76
2023-03-06T02:26:26.785Z,99345.04
2023-03-06T02:28:57.615Z,99344.41
2023-03-06T02:31:26.947Z,99342.46
2023-03-06T02:34:07.509Z,99343.46
2023-03-06T02:36:39.771Z,99345.12
2023-03-06T02:39:08.444Z,99342.33
2023-03-06T02:41:36.697Z,99341.88
2023-03-06T02:44:05.440Z,99349.98
2023-03-06T02:46:33.834Z,99349.75
2023-03-06T02:49:02.106Z,99352.09
2023-03-06T02:51:31.199Z,99355.08
2023-03-06T02:53:59.712Z,99359.77
2023-03-06T02:56:28.002Z,99357.70
2023-03-06T02:58:56.384Z,99360.56
2023-03-06T03:01:26.062Z,99362.59
2023-03-06T03:03:55.553Z,99368.69
2023-03-06T03:06:24.530Z,99368.98
2023-03-06T03:08:52.858Z,99372.17
2023-03-06T03:11:22.815Z,99373.86
2023-03-06T03:13:51.419Z,99372.69
2023-03-06T03:16:25.479Z,99372.55
2023-03-06T03:19:01.985Z,99370.00
2023-03-06T03:21:30.417Z,99370.70
2023-03-06T03:23:58.689Z,99371.06
2023-03-06T03:26:28.195Z,99370.40
2023-03-06T03:29:05.206Z,99373.17
2023-03-06T03:31:35.228Z,99371.79
2023-03-06T03:34:03.678Z,99374.67
2023-03-06T03:36:34.350Z,99371.63
2023-03-06T03:39:04.303Z,99374.85
2023-03-06T03:41:34.017Z,99379.25
2023-03-06T03:44:04.398Z,99381.57
2023-03-06T03:46:37.101Z,99385.35
2023-03-06T03:49:06.986Z,99383.32
2023-03-06T03:51:35.681Z,99385.05
2023-03-06T03:54:06.800Z,99383.59
2023-03-06T03:56:40.410Z,99381.16
2023-03-06T03:59:12.667Z,99384.14
2023-03-06T04:01:47.108Z,99386.27
2023-03-06T04:04:15.824Z,99388.59
2023-03-06T04:06:44.820Z,99385.48
2023-03-06T04:09:14.364Z,99383.77
2023-03-06T04:11:43.736Z,99380.27
2023-03-06T04:14:12.720Z,99381.81
2023-03-06T04:16:41.232Z,99380.15
2023-03-06T04:19:10.008Z,99377.98
2023-03-06T04:21:39.896Z,99381.28
2023-03-06T04:24:09.166Z,99379.46
2023-03-06T04:26:37.439Z,99379.34
2023-03-06T04:29:05.975Z,99386.83
2023-03-06T04:31:38.653Z,99386.62
2023-03-06T04:34:07.526Z,99387.41
2023-03-06T04:36:36.521Z,99386.81
2023-03-06T04:39:09.469Z,99382.47
2023-03-06T04:41:39.393Z,99391.02
2023-03-06T04:44:07.737Z,99388.93
2023-03-06T04:46:36.245Z,99383.42
2023-03-06T04:49:05.097Z,99386.74
2023-03-06T04:51:33.750Z,99387.23
2023-03-06T04:54:03.597Z,99397.13
2023-03-06T04:56:32.029Z,99407.52
2023-03-06T04:59:00.490Z,99411.59
2023-03-06T05:01:28.721Z,99415.21
2023-03-06T05:03:58.388Z,99414.96
2023-03-06T05:06:26.746Z,99410.64
2023-03-06T05:08:54.982Z,99408.83
2023-03-06T05:11:23.548Z,99414.66
2023-03-06T05:13:51.864Z,99412.94
2023-03-06T05:16:23.677Z,99418.36
2023-03-06T05:18:52.614Z,99425.60
2023-03-06T05:21:21.174Z,99429.06
2023-03-06T05:23:49.490Z,99424.46
2023-03-06T05:26:17.689Z,99430.27
2023-03-06T05:28:46.000Z,99439.52
2023-03-06T05:31:16.406Z,99444.23
2023-03-06T05:33:44.629Z,99444.20
2023-03-06T05:36:13.241Z,99447.63
2023-03-06T05:38:45.791Z,99449.55
2023-03-06T05:41:15.474Z,99442.99
2023-03-06T05:43:43.827Z,99441.58
2023-03-06T05:46:12.557Z,99443.38
2023-03-06T05:48:41.001Z,99445.32
2023-03-06T05:51:09.844Z,99450.45
2023-03-06T05:53:38.179Z,99451.99
2023-03-06T05:56:11.531Z,99454.13
2023-03-06T05:58:41.850Z,99458.86
2023-03-06T06:01:14.205Z,99474.30
2023-03-06T06:03:43.817Z,99487.73
2023-03-06T06:06:12.565Z,99490.55
2023-03-06T06:08:44.403Z,99501.56
2023-03-06T06:11:13.206Z,99505.44
2023-03-06T06:13:45.488Z,99504.91
2023-03-06T06:16:16.492Z,99505.23
2023-03-06T06:18:45.198Z,99504.18
2023-03-06T06:21:19.911Z,99502.11
2023-03-06T06:23:48.507Z,99506.38
2023-03-06T06:26:16.787Z,99508.61
2023-03-06T06:28:44.962Z,99512.77
2023-03-06T06:31:13.515Z,99514.13
2023-03-06T06:33:43.144Z,99521.30
2023-03-06T06:36:17.836Z,99523.75
2023-03-06T06:38:46.154Z,99530.28
2023-03-06T06:44:06.681Z,99523.77
2023-03-06T06:47:20.779Z,99525.35
2023-03-06T06:49:27.427Z,99522.53
2023-03-06T06:51:57.059Z,99528.57
2023-03-06T06:54:25.332Z,99533.02
2023-03-06T06:56:53.626Z,99537.43
2023-03-06T06:59:23.871Z,99539.73
2023-03-06T07:01:52.385Z,99540.08
2023-03-06T07:04:20.948Z,99542.26
2023-03-06T07:06:49.193Z,99543.08
2023-03-06T07:09:17.652Z,99550.61
2023-03-06T07:11:45.932Z,99557.41
2023-03-06T07:14:14.656Z,99558.80
2023-03-06T07:16:43.600Z,99563.33
2023-03-06T07:19:12.539Z,99567.41
2023-03-06T07:21:40.839Z,99563.91
2023-03-06T07:24:09.311Z,99565.92
2023-03-06T07:26:37.698Z,99566.44
2023-03-06T07:29:05.891Z,99566.95
2023-03-06T07:31:34.166Z,99566.45
2023-03-06T07:34:04.774Z,99565.18
2023-03-06T07:36:34.135Z,99567.73
2023-03-06T07:39:02.349Z,99565.44
2023-03-06T07:41:30.468Z,99564.65
2023-03-06T07:44:00.294Z,99559.68
2023-03-06T07:46:29.191Z,99559.42
2023-03-06T07:48:58.445Z,99552.67
2023-03-06T07:51:26.640Z,99554.29
2023-03-06T07:53:55.472Z,99548.39
2023-03-06T07:56:23.648Z,99539.86
2023-03-06T07:58:52.257Z,99535.70
2023-03-06T08:01:21.085Z,99529.69
2023-03-06T08:03:50.319Z,99529.48
2023-03-06T08:06:22.425Z,99530.84
2023-03-06T08:08:51.919Z,99536.01
2023-03-06T08:11:21.187Z,99538.98
2023-03-06T08:13:52.986Z,99541.36
2023-03-06T08:16:21.830Z,99545.15
2023-03-06T08:18:53.658Z,99550.69
2023-03-06T08:21:24.120Z,99553.98
2023-03-06T08:23:55.003Z,99553.11
2023-03-06T08:26:24.553Z,99550.86
2023-03-06T08:28:53.307Z,99551.25
2023-03-06T08:31:27.518Z,99551.48
2023-03-06T08:33:56.191Z,99553.23
2023-03-06T08:36:24.843Z,99554.00
2023-03-06T08:38:53.232Z,99560.20
2023-03-06T08:41:21.565Z,99564.07
2023-03-06T08:43:51.221Z,99563.91
2023-03-06T08:46:19.886Z,99562.64
2023-03-06T08:48:49.289Z,99563.22
2023-03-06T08:51:17.964Z,99561.05
2023-03-06T08:53:46.377Z,99565.69
2023-03-06T08:56:15.807Z,99564.12
2023-03-06T08:58:44.062Z,99571.32
2023-03-06T09:01:19.703Z,99577.48
2023-03-06T09:04:08.809Z,99583.23
2023-03-06T09:06:40.247Z,99586.60
2023-03-06T09:09:08.501Z,99587.69
2023-03-06T09:11:37.117Z,99587.86
2023-03-06T09:14:05.757Z,99592.92
2023-03-06T09:16:34.017Z,99591.55
2023-03-06T09:19:02.343Z,99590.60
2023-03-06T09:21:30.600Z,99594.84
2023-03-06T09:24:04.472Z,99594.66
2023-03-06T09:26:45.099Z,99594.36
2023-03-06T09:29:16.462Z,99586.74
2023-03-06T09:31:45.192Z,99589.64
2023-03-06T09:34:13.793Z,99588.92
2023-03-06T09:36:55.877Z,99590.79
2023-03-06T09:39:25.592Z,99592.59
2023-03-06T09:41:53.844Z,99589.79
2023-03-06T09:44:23.173Z,99587.99
2023-03-06T09:47:03.244Z,99592.04
2023-03-06T09:49:31.633Z,99599.73
2023-03-06T09:52:15.136Z,99596.52
2023-03-06T09:54:46.269Z,99595.16
2023-03-06T09:57:22.149Z,99592.06
2023-03-06T09:59:51.841Z,99599.70
2023-03-06T10:02:23.908Z,99597.73
2023-03-06T10:04:54.959Z,99591.73
2023-03-06T10:07:24.133Z,99587.38
2023-03-06T10:10:00.197Z,99587.13
2023-03-06T10:12:29.461Z,99587.98
2023-03-06T10:14:59.809Z,99592.82
2023-03-06T10:17:37.946Z,99586.30
2023-03-06T10:20:19.107Z,99581.35
2023-03-06T10:23:01.307Z,99585.38
2023-03-06T10:25:52.832Z,99581.13
2023-03-06T10:28:22.978Z,99577.73
2023-03-06T10:30:53.311Z,99574.33
2023-03-06T10:33:27.472Z,99566.61
2023-03-06T10:35:56.238Z,99564.44
2023-03-06T10:38:26.119Z,99566.19
2023-03-06T10:41:03.950Z,99565.31
2023-03-06T10:43:36.256Z,99559.32
2023-03-06T10:46:07.528Z,99558.91
2023-03-06T10:48:39.415Z,99561.89
2023-03-06T10:51:22.127Z,99563.85
2023-03-06T10:53:53.380Z,99562.21
2023-03-06T10:56:33.650Z,99564.94
2023-03-06T10:59:06.217Z,99566.66
2023-03-06T11:01:43.791Z,99565.80
2023-03-06T11:04:22.254Z,99557.65
2023-03-06T11:07:09.310Z,99560.95
2023-03-06T11:09:38.430Z,99559.59
2023-03-06T11:12:22.322Z,99560.98
2023-03-06T11:15:09.375Z,99559.48
2023-03-06T11:17:48.049Z,99551.25
2023-03-06T11:20:27.796Z,99555.05
2023-03-06T11:23:15.362Z,99556.77
2023-03-06T11:25:48.663Z,99553.15
2023-03-06T11:28:22.699Z,99556.27
2023-03-06T11:31:14.272Z,99555.89
2023-03-06T11:33:46.678Z,99553.58
2023-03-06T11:36:38.667Z,99553.09
2023-03-06T11:39:23.576Z,99559.52
2023-03-06T11:42:01.477Z,99565.70
2023-03-06T11:44:36.823Z,99557.11
2023-03-06T11:47:05.085Z,99561.60
2023-03-06T11:49:35.140Z,99563.96
2023-03-06T11:52:12.734Z,99558.89
2023-03-06T11:54:40.880Z,99560.09
2023-03-06T11:57:34.201Z,99565.25
2023-03-06T12:00:13.917Z,99563.75
2023-03-06T12:02:46.891Z,99565.07
2023-03-06T12:05:24.623Z,99570.91
2023-03-06T12:08:04.844Z,99566.10
2023-03-06T12:10:39.110Z,99567.44
2023-03-06T12:13:28.141Z,99566.62
2023-03-06T12:16:02.051Z,99568.19
2023-03-06T12:18:49.345Z,99569.08
2023-03-06T12:21:35.953Z,99564.19
2023-03-06T12:24:17.314Z,99563.61
2023-03-06T12:27:04.839Z,99562.34
2023-03-06T12:29:35.953Z,99566.27
2023-03-06T12:32:10.698Z,99561.10
2023-03-06T12:34:57.741Z,99561.43
2023-03-06T12:37:29.036Z,99564.89
2023-03-06T12:40:06.860Z,99563.64
2023-03-06T12:42:54.224Z,99570.54
2023-03-06T12:45:22.534Z,99568.55
2023-03-06T12:47:55.741Z,99565.63
2023-03-06T12:50:26.319Z,99570.58
2023-03-06T12:52:55.429Z,99571.99
2023-03-06T12:55:26.943Z,99566.09
2023-03-06T12:57:56.007Z,99566.19
2023-03-06T13:00:37.404Z,99565.48
2023-03-06T13:03:05.809Z,99566.90
2023-03-06T13:05:56.671Z,99564.28
2023-03-06T13:08:46.715Z,99560.86
2023-03-06T13:11:18.886Z,99567.63
2023-03-06T13:13:47.360Z,99572.05
2023-03-06T13:16:18.761Z,99566.09
2023-03-06T13:18:54.714Z,99568.55
2023-03-06T13:21:43.241Z,99568.70
2023-03-06T13:24:15.772Z,99576.30
2023-03-06T13:26:44.592Z,99575.38
2023-03-06T13:29:36.035Z,99578.71
2023-03-06T13:32:04.512Z,99577.19
2023-03-06T13:34:37.327Z,99573.23
2023-03-06T13:37:17.875Z,99582.77
2023-03-06T13:39:52.405Z,99579.52
2023-03-06T13:42:30.002Z,99582.55
2023-03-06T13:44:58.863Z,99586.24
2023-03-06T13:47:31.158Z,99591.69
2023-03-06T13:49:59.604Z,99594.09
2023-03-06T13:52:39.734Z,99595.63
2023-03-06T13:55:11.450Z,99599.59
2023-03-06T13:57:58.734Z,99599.89
2023-03-06T14:00:37.739Z,99608.02
2023-03-06T14:03:25.332Z,99612.56
2023-03-06T14:05:54.290Z,99611.29
2023-03-06T14:08:31.912Z,99614.65
2023-03-06T14:11:17.840Z,99615.44
2023-03-06T14:13:51.032Z,99624.19
2023-03-06T14:16:20.729Z,99628.41
2023-03-06T14:18:51.916Z,99629.33
2023-03-06T14:21:26.113Z,99630.42
2023-03-06T14:24:00.309Z,99634.97
2023-03-06T14:26:29.612Z,99632.65
2023-03-06T14:28:58.769Z,99630.85
2023-03-06T14:31:28.531Z,99635.73
2023-03-06T14:33:57.078Z,99636.80
2023-03-06T14:36:37.307Z,99634.77
2023-03-06T14:39:08.941Z,99640.11
2023-03-06T14:41:37.205Z,99643.54
2023-03-06T14:44:26.736Z,99648.86
2023-03-06T14:46:55.789Z,99653.00
2023-03-06T14:49:24.679Z,99654.73
2023-03-06T14:51:56.714Z,99660.93
2023-03-06T14:54:27.374Z,99664.05
2023-03-06T14:56:57.732Z,99664.23
2023-03-06T14:59:26.519Z,99670.96
2023-03-06T15:01:59.386Z,99672.72
2023-03-06T15:04:27.649Z,99675.30
2023-03-06T15:06:56.336Z,99681.15
2023-03-06T15:09:25.688Z,99678.06
2023-03-06T15:11:58.980Z,99678.60
2023-03-06T15:14:29.005Z,99678.61
2023-03-06T15:16:57.320Z,99685.14
2023-03-06T15:19:25.542Z,99686.69
2023-03-06T15:21:53.936Z,99688.25
2023-03-06T15:24:35.465Z,99692.04
2023-03-06T15:27:04.921Z,99693.23
2023-03-06T15:29:33.250Z,99696.67
2023-03-06T15:32:14.865Z,99698.40
2023-03-06T15:34:43.241Z,99698.76
2023-03-06T15:37:20.006Z,99699.61
2023-03-06T15:40:01.157Z,99701.84
2023-03-06T15:42:29.477Z,99704.26
2023-03-06T15:44:58.626Z,99708.89
2023-03-06T15:47:27.116Z,99707.52
2023-03-06T15:49:57.157Z,99710.79
2023-03-06T15:52:25.652Z,99713.19
2023-03-06T15:54:54.499Z,99715.09
2023-03-06T15:57:26.500Z,99713.20
2023-03-06T15:59:56.206Z,99716.98
2023-03-06T16:02:26.161Z,99715.28
2023-03-06T16:04:54.552Z,99717.36
2023-03-06T16:07:23.194Z,99713.58
2023-03-06T16:09:51.719Z,99721.48
2023-03-06T16:12:20.797Z,99722.00
2023-03-06T16:14:49.363Z,99725.25
2023-03-06T16:17:17.790Z,99728.69
2023-03-06T16:19:45.975Z,99731.77
2023-03-06T16:22:14.641Z,99733.96
2023-03-06T16:24:43.572Z,99736.69
2023-03-06T16:27:17.714Z,99736.34
2023-03-06T16:29:49.540Z,99743.15
2023-03-06T16:32:17.850Z,99744.15
2023-03-06T16:34:46.447Z,99743.45
2023-03-06T16:37:16.685Z,99744.45
2023-03-06T16:39:45.209Z,99752.14
2023-03-06T16:42:13.417Z,99749.73
2023-03-06T16:44:41.818Z,99746.64
2023-03-06T16:47:12.807Z,99750.39
2023-03-06T16:49:42.528Z,99749.51
2023-03-06T16:52:11.249Z,99749.14
2023-03-06T16:54:44.763Z,99749.30
2023-03-06T16:57:14.343Z,99750.65
2023-03-06T16:59:42.504Z,99752.37
2023-03-06T17:02:12.413Z,99751.50
2023-03-06T17:04:40.602Z,99752.02
2023-03-06T17:07:09.392Z,99752.02
2023-03-06T17:09:37.783Z,99754.93
2023-03-06T17:12:06.596Z,99758.87
2023-03-06T17:14:38.607Z,99759.58
2023-03-06T17:17:07.521Z,99758.21
2023-03-06T17:19:36.260Z,99757.52
2023-03-06T17:22:05.395Z,99756.85
2023-03-06T17:24:35.207Z,99759.94
2023-03-06T17:27:06.085Z,99760.64
2023-03-06T17:29:34.410Z,99764.09
2023-03-06T17:32:03.657Z,99764.45
2023-03-06T17:34:32.834Z,99760.34
2023-03-06T17:37:01.563Z,99760.15
2023-03-06T17:39:33.457Z,99762.03
2023-03-06T17:42:03.517Z,99757.73
2023-03-06T17:44:34.656Z,99759.29
2023-03-06T17:47:02.889Z,99760.66
2023-03-06T17:49:31.370Z,99760.16
2023-03-06T17:52:01.174Z,99765.13
2023-03-06T17:54:30.380Z,99768.56
2023-03-06T17:57:01.348Z,99769.77
2023-03-06T17:59:29.919Z,99771.11
2023-03-06T18:01:59.802Z,99774.02
2023-03-06T18:04:28.288Z,99772.83
2023-03-06T18:06:58.437Z,99772.48
2023-03-06T18:09:27.593Z,99766.63
2023-03-06T18:11:56.527Z,99765.25
2023-03-06T18:14:25.084Z,99767.66
2023-03-06T18:16:54.270Z,99770.73
2023-03-06T18:19:22.643Z,99772.27
2023-03-06T18:21:50.715Z,99778.42
2023-03-06T18:24:19.166Z,99778.96
2023-03-06T18:26:47.543Z,99784.45
2023-03-06T18:29:16.692Z,99786.51
2023-03-06T18:31:47.598Z,99784.30
2023-03-06T18:34:17.948Z,99784.46
2023-03-06T18:36:50.896Z,99784.80
2023-03-06T18:39:19.472Z,99786.52
2023-03-06T18:41:47.779Z,99785.82
2023-03-06T18:44:17.636Z,99786.33
2023-03-06T18:46:45.919Z,99789.23
2023-03-06T18:49:18.041Z,99793.52
2023-03-06T18:51:51.293Z,99798.64
2023-03-06T18:54:19.786Z,99795.54
2023-03-06T18:56:48.246Z,99799.48
2023-03-06T18:59:36.380Z,99797.23
2023-03-06T19:02:05.083Z,99796.70
2023-03-06T19:04:33.485Z,99798.74
2023-03-06T19:07:02.498Z,99801.65
2023-03-06T19:09:30.828Z,99804.19
2023-03-06T19:12:00.378Z,99805.38
2023-03-06T19:14:30.472Z,99805.36
2023-03-06T19:16:58.777Z,99805.00
2023-03-06T19:19:31.488Z,99807.39
2023-03-06T19:22:00.355Z,99804.81
2023-03-06T19:24:35.197Z,99807.20
2023-03-06T19:27:05.174Z,99804.45
2023-03-06T19:29:33.703Z,99803.08
2023-03-06T19:32:03.566Z,99802.05
2023-03-06T19:34:32.023Z,99799.30
2023-03-06T19:37:03.634Z,99799.81
2023-03-06T19:39:33.897Z,99798.09
2023-03-06T19:42:04.737Z,99800.16
2023-03-06T19:44:35.038Z,99801.88
2023-03-06T19:47:03.247Z,99800.00
2023-03-06T19:49:33.060Z,99801.54
2023-03-06T19:52:01.390Z,99803.77
2023-03-06T19:54:32.419Z,99805.30
2023-03-06T19:57:01.779Z,99805.13
2023-03-06T19:59:33.872Z,99802.73
2023-03-06T20:02:02.287Z,99803.60
2023-03-06T20:04:34.372Z,99804.46
2023-03-06T20:07:04.970Z,99800.69
2023-03-06T20:09:35.814Z,99803.09
2023-03-06T20:12:08.469Z,99805.98
2023-03-06T20:14:37.611Z,99806.14
2023-03-06T20:17:05.929Z,99804.42
2023-03-06T20:19:34.679Z,99805.58
2023-03-06T20:22:03.498Z,99809.85
2023-03-06T20:24:31.954Z,99807.92
2023-03-06T20:27:00.353Z,99805.66
2023-03-06T20:29:28.641Z,99806.47
2023-03-06T20:32:02.735Z,99804.23
2023-03-06T20:34:32.133Z,99805.77
2023-03-06T20:37:00.589Z,99801.13
2023-03-06T20:39:30.805Z,99805.91
2023-03-06T20:42:00.226Z,99802.98
2023-03-06T20:44:28.634Z,99802.30
2023-03-06T20:46:56.938Z,99801.11
2023-03-06T20:49:27.159Z,99801.25
2023-03-06T20:51:56.898Z,99799.89
2023-03-06T20:54:25.165Z,99799.54
2023-03-06T20:56:53.461Z,99800.20
2023-03-06T20:59:22.046Z,99801.03
2023-03-06T21:01:50.257Z,99802.73
2023-03-06T21:04:18.620Z,99800.51
2023-03-06T21:06:48.380Z,99801.34
2023-03-06T21:09:17.175Z,99801.48
2023-03-06T21:11:45.773Z,99801.13
2023-03-06T21:14:15.611Z,99801.27
2023-03-06T21:16:43.993Z,99800.22
2023-03-06T21:19:20.062Z,99798.68
2023-03-06T21:21:50.629Z,99799.88
2023-03-06T21:24:21.282Z,99801.08
2023-03-06T21:26:51.422Z,99803.63
2023-03-06T21:29:19.705Z,99807.56
2023-03-06T21:31:48.915Z,99806.54
2023-03-06T21:34:17.257Z,99805.16
2023-03-06T21:36:45.552Z,99801.58
2023-03-06T21:39:14.258Z,99795.61
2023-03-06T21:41:42.488Z,99797.33
2023-03-06T21:44:11.402Z,99795.29
2023-03-06T21:46:41.976Z,99793.63
2023-03-06T21:49:10.842Z,99790.89
2023-03-06T21:51:40.744Z,99795.88
2023-03-06T21:54:09.897Z,99795.70
2023-03-06T21:56:38.434Z,99794.83
2023-03-06T21:59:06.592Z,99791.05
2023-03-06T22:01:38.290Z,99788.83
2023-03-06T22:04:06.998Z,99785.73
2023-03-06T22:06:35.326Z,99784.52
2023-03-06T22:09:04.547Z,99789.14
2023-03-06T22:11:37.044Z,99791.86
2023-03-06T22:14:07.322Z,99795.64
2023-03-06T22:16:38.605Z,99793.59
2023-03-06T22:19:07.648Z,99793.24
2023-03-06T22:21:35.928Z,99792.38
2023-03-06T22:24:05.991Z,99787.93
2023-03-06T22:26:34.987Z,99787.42
2023-03-06T22:29:07.418Z,99792.89
2023-03-06T22:31:39.285Z,99793.06
2023-03-06T22:34:08.432Z,99792.06
2023-03-06T22:36:36.688Z,99788.83
2023-03-06T22:39:07.817Z,99790.71
2023-03-06T22:41:36.450Z,99791.59
2023-03-06T22:44:05.111Z,99794.19
2023-03-06T22:46:34.078Z,99793.53
2023-03-06T22:49:02.666Z,99795.10
2023-03-06T22:51:32.098Z,99798.55
2023-03-06T22:54:00.781Z,99802.48
2023-03-06T22:56:30.438Z,99798.73
2023-03-06T22:58:58.789Z,99802.30
2023-03-06T23:01:28.214Z,99802.60
2023-03-06T23:03:57.665Z,99800.70
2023-03-06T23:06:30.827Z,99803.58
2023-03-06T23:09:06.078Z,99804.55
2023-03-06T23:11:53.027Z,99814.42
2023-03-06T23:14:41.470Z,99812.31
2023-03-06T23:17:33.565Z,99813.27
2023-03-06T23:20:20.389Z,99811.66
2023-03-06T23:23:07.265Z,99811.63
2023-03-06T23:25:44.808Z,99812.48
2023-03-06T23:28:13.172Z,99809.33
2023-03-06T23:30:41.701Z,99813.87
2023-03-06T23:33:10.344Z,99809.35
2023-03-06T23:35:40.480Z,99800.73
2023-03-06T23:38:08.818Z,99805.71
2023-03-06T23:40:38.041Z,99803.52
2023-03-06T23:43:06.394Z,99798.48
2023-03-06T23:45:34.996Z,99795.17
2023-03-06T23:48:05.457Z,99799.41
2023-03-06T23:50:33.757Z,99798.38
2023-03-06T23:53:03.639Z,99796.67
2023-03-06T23:55:31.965Z,99799.70
2023-03-06T23:58:10.398Z,99794.19
